Terminal Aerodrome Forecast
Issued by NWS

Home | Current Version | Previous Version | Graphics & Text | Print | Product List | Glossary On
Versions: 1 2 3 4 5 6 7 8 9 10 11 12
329
FTUS43 KGRB 170520
TAFCWA
TAF
KCWA 170520Z 1706/1806 20008KT P6SM SCT250 WS010/24040KT
     FM171000 25007KT P6SM SCT250
     FM172200 19005KT P6SM SKC
      AMD LTD TO CLD VIS AND WIND TIL 171100=

USA.gov is the U.S. government's official web portal to all federal, state and local government web resources and services.